Time;durP1;ratioP1;P1;durP2;ratioP2;P2;SDS_P1;SDS_P2;PMS_P1;PMS_P2;Temp;Humidity;BMP_temperature;BMP_pressure;BME280_temperature;BME280_humidity;BME280_pressure;Samples;Min_cycle;Max_cycle;Signal;HPM_P1;HPM_P2
2022/06/29 00:00:27;;;;;;;3.33;1.67;;;17.60;99.90;;;;;;4999250;28;20069;-56
2022/06/29 00:02:53;;;;;;;3.38;1.80;;;17.60;99.90;;;;;;4986468;28;20077;-55
2022/06/29 00:05:22;;;;;;;3.15;1.52;;;17.60;99.90;;;;;;4985019;28;20080;-55
2022/06/29 00:07:49;;;;;;;6.30;1.60;;;17.50;99.90;;;;;;4985772;28;20037;-52
2022/06/29 00:10:15;;;;;;;3.70;2.40;;;17.40;99.90;;;;;;4985858;28;20523;-53
2022/06/29 00:12:44;;;;;;;3.65;1.58;;;17.40;99.90;;;;;;4998156;28;20512;-56
2022/06/29 00:15:10;;;;;;;3.00;1.48;;;17.30;99.90;;;;;;4995328;28;20064;-52
2022/06/29 00:17:36;;;;;;;3.88;1.65;;;17.20;99.90;;;;;;4993324;28;20022;-54
2022/06/29 00:20:04;;;;;;;2.78;1.60;;;17.20;99.90;;;;;;4998475;28;20071;-52
2022/06/29 00:22:30;;;;;;;3.65;1.92;;;17.20;99.90;;;;;;4979639;28;20046;-54
2022/06/29 00:24:56;;;;;;;4.13;1.65;;;17.30;99.90;;;;;;4995737;28;20454;-54
2022/06/29 00:27:22;;;;;;;4.50;1.50;;;17.20;99.90;;;;;;4987995;28;20023;-54
2022/06/29 00:29:47;;;;;;;4.90;1.95;;;17.20;99.90;;;;;;4996865;28;20159;-52
2022/06/29 00:32:14;;;;;;;4.15;2.05;;;17.20;99.90;;;;;;4988140;28;20052;-56
2022/06/29 00:34:39;;;;;;;6.35;1.83;;;17.10;99.90;;;;;;4989388;28;20140;-55
2022/06/29 00:37:05;;;;;;;4.25;1.90;;;17.10;99.90;;;;;;4987877;28;20073;-52
2022/06/29 00:39:32;;;;;;;2.53;1.70;;;17.10;99.90;;;;;;4989549;28;20549;-54
2022/06/29 00:41:58;;;;;;;3.08;2.05;;;17.10;99.90;;;;;;4986430;28;20030;-55
2022/06/29 00:44:24;;;;;;;4.35;2.10;;;17.00;99.90;;;;;;4992354;28;20026;-54
2022/06/29 00:46:52;;;;;;;4.47;1.60;;;16.90;99.90;;;;;;4996371;28;20081;-54
2022/06/29 00:49:19;;;;;;;6.22;1.55;;;16.90;99.90;;;;;;4990988;28;20038;-54
2022/06/29 00:51:50;;;;;;;2.13;1.52;;;16.90;99.90;;;;;;4992811;28;20072;-54
2022/06/29 00:54:19;;;;;;;4.80;2.28;;;16.80;99.90;;;;;;4990721;28;20105;-56
2022/06/29 00:56:46;;;;;;;3.20;1.98;;;16.80;99.90;;;;;;4980917;28;20033;-55
2022/06/29 00:59:19;;;;;;;3.30;1.85;;;16.80;99.90;;;;;;4985656;28;20026;-57
2022/06/29 01:01:45;;;;;;;;;;;16.70;99.90;;;;;;4988317;28;20045;-57
2022/06/29 01:04:11;;;;;;;3.15;1.70;;;16.70;99.90;;;;;;4991028;28;19910;-55
2022/06/29 01:06:36;;;;;;;7.47;1.85;;;16.70;99.90;;;;;;4997127;28;21831;-57
2022/06/29 01:09:04;;;;;;;4.63;1.67;;;16.80;99.90;;;;;;4989817;28;20046;-55
2022/06/29 01:11:31;;;;;;;2.97;1.52;;;16.80;99.90;;;;;;4987094;28;20035;-56
2022/06/29 01:13:57;;;;;;;3.05;1.65;;;16.90;99.90;;;;;;4985648;28;20111;-56
2022/06/29 01:16:22;;;;;;;4.35;1.48;;;16.90;99.90;;;;;;4990558;28;20030;-56
2022/06/29 01:18:48;;;;;;;2.58;1.58;;;16.80;99.90;;;;;;4989126;28;20042;-56
2022/06/29 01:21:13;;;;;;;2.67;1.67;;;16.80;99.90;;;;;;4989259;28;20035;-55
2022/06/29 01:23:39;;;;;;;4.78;1.83;;;16.80;99.90;;;;;;4964224;28;20055;-55
2022/06/29 01:26:06;;;;;;;7.82;2.42;;;16.80;99.90;;;;;;4985322;28;20035;-56
2022/06/29 01:28:32;;;;;;;5.07;2.25;;;16.70;99.90;;;;;;4984494;28;20468;-52
2022/06/29 01:30:59;;;;;;;3.90;2.22;;;16.70;99.90;;;;;;4990960;28;20323;-53
2022/06/29 01:33:25;;;;;;;6.65;2.42;;;16.60;99.90;;;;;;4994019;28;20124;-55
2022/06/29 01:35:50;;;;;;;3.67;1.92;;;16.50;99.90;;;;;;4990833;28;20176;-56
2022/06/29 01:38:17;;;;;;;3.08;1.85;;;16.50;99.90;;;;;;4990086;28;20039;-56
2022/06/29 01:40:43;;;;;;;4.97;2.15;;;16.40;99.90;;;;;;4992642;28;20432;-55
2022/06/29 01:43:09;;;;;;;8.10;2.40;;;16.40;99.90;;;;;;4988820;28;20022;-55
2022/06/29 01:45:35;;;;;;;7.45;1.88;;;16.40;99.90;;;;;;4981692;28;20049;-56
2022/06/29 01:48:00;;;;;;;6.28;2.10;;;16.30;99.90;;;;;;4990955;28;20436;-57
2022/06/29 01:50:26;;;;;;;5.25;2.10;;;16.30;99.90;;;;;;4989894;28;20030;-56
2022/06/29 01:52:52;;;;;;;3.20;2.13;;;16.20;99.90;;;;;;4991792;28;20100;-53
2022/06/29 01:55:18;;;;;;;3.60;2.15;;;16.20;99.90;;;;;;4989930;28;20498;-55
2022/06/29 01:57:43;;;;;;;3.58;1.75;;;16.10;99.90;;;;;;4992789;28;20030;-55
2022/06/29 02:00:09;;;;;;;4.47;1.65;;;16.10;99.90;;;;;;4995484;28;20028;-54
2022/06/29 02:02:35;;;;;;;4.80;2.10;;;16.10;99.90;;;;;;4989313;28;20110;-55
2022/06/29 02:05:01;;;;;;;4.38;1.90;;;16.00;99.90;;;;;;4976835;28;20110;-55
2022/06/29 02:07:26;;;;;;;3.67;2.00;;;16.00;99.90;;;;;;4988367;28;20680;-53
2022/06/29 02:09:52;;;;;;;5.28;2.15;;;15.90;99.90;;;;;;4989560;28;20446;-54
2022/06/29 02:12:17;;;;;;;4.15;2.53;;;15.80;99.90;;;;;;4997773;28;20045;-53
2022/06/29 02:14:43;;;;;;;5.38;2.35;;;15.80;99.90;;;;;;4993654;28;20030;-54
2022/06/29 02:17:09;;;;;;;4.30;2.55;;;15.70;99.90;;;;;;4999073;28;20044;-55
2022/06/29 02:19:34;;;;;;;4.03;2.28;;;15.70;99.90;;;;;;4985845;28;20022;-55
2022/06/29 02:22:01;;;;;;;5.18;2.33;;;15.60;99.90;;;;;;4999844;28;20093;-55
2022/06/29 02:24:27;;;;;;;6.00;1.92;;;15.50;99.90;;;;;;4968382;28;20042;-55
2022/06/29 02:26:53;;;;;;;5.20;2.28;;;15.50;99.90;;;;;;4986681;28;20038;-55
2022/06/29 02:29:18;;;;;;;12.63;2.22;;;15.50;99.90;;;;;;4992934;28;20038;-56
2022/06/29 02:34:49;;;;;;;5.75;2.50;;;15.40;99.90;;;;;;4994922;28;20571;-55
2022/06/29 02:37:15;;;;;;;6.32;1.92;;;15.50;99.90;;;;;;4989984;28;20069;-55
2022/06/29 02:39:44;;;;;;;5.72;2.20;;;15.50;99.90;;;;;;4992805;28;20030;-57
2022/06/29 02:42:11;;;;;;;5.40;2.20;;;15.50;99.90;;;;;;4991950;28;20109;-57
2022/06/29 02:44:38;;;;;;;5.32;2.72;;;15.40;99.90;;;;;;4982618;28;20031;-53
2022/06/29 02:47:05;;;;;;;5.25;2.25;;;15.40;99.90;;;;;;4991173;28;20030;-55
2022/06/29 02:49:31;;;;;;;6.57;2.10;;;15.40;99.90;;;;;;4996488;28;20034;-48
2022/06/29 02:51:57;;;;;;;3.13;2.40;;;15.30;99.90;;;;;;4996050;28;20041;-56
2022/06/29 02:54:22;;;;;;;4.10;2.22;;;15.30;99.90;;;;;;4996085;28;20036;-55
2022/06/29 02:56:48;;;;;;;6.47;2.42;;;15.20;99.90;;;;;;4995782;28;20023;-54
2022/06/29 02:59:14;;;;;;;5.28;2.03;;;15.20;99.90;;;;;;4993229;28;20027;-54
2022/06/29 03:01:39;;;;;;;5.10;2.20;;;15.10;99.90;;;;;;4987292;28;20030;-56
2022/06/29 03:04:05;;;;;;;3.50;2.33;;;15.20;99.90;;;;;;4989223;28;20064;-55
2022/06/29 03:06:31;;;;;;;3.78;1.95;;;15.10;99.90;;;;;;4988782;28;20412;-57
2022/06/29 03:08:56;;;;;;;5.15;2.58;;;15.10;99.90;;;;;;4989287;28;20062;-58
2022/06/29 03:11:22;;;;;;;4.70;2.67;;;15.10;99.90;;;;;;4993729;28;20026;-55
2022/06/29 03:13:47;;;;;;;4.40;2.00;;;15.10;99.90;;;;;;4985335;28;20109;-55
2022/06/29 03:16:14;;;;;;;4.38;1.75;;;15.10;99.90;;;;;;4991398;28;20073;-56
2022/06/29 03:18:39;;;;;;;5.47;2.38;;;15.10;99.90;;;;;;4993727;28;20034;-57
2022/06/29 03:21:05;;;;;;;4.28;2.45;;;15.20;99.90;;;;;;4985821;28;20045;-54
2022/06/29 03:23:30;;;;;;;13.75;2.33;;;15.30;99.90;;;;;;4988266;28;20093;-53
2022/06/29 03:25:56;;;;;;;4.18;2.35;;;15.40;99.90;;;;;;4976483;28;20137;-55
2022/06/29 03:28:22;;;;;;;4.78;2.55;;;15.40;99.90;;;;;;4997758;28;20133;-56
2022/06/29 03:30:47;;;;;;;5.25;2.45;;;15.50;99.90;;;;;;4994120;28;20037;-56
2022/06/29 03:33:13;;;;;;;9.80;2.60;;;15.50;99.90;;;;;;4991417;28;20029;-56
2022/06/29 03:35:38;;;;;;;3.28;1.95;;;15.50;99.90;;;;;;4994220;28;20037;-56
2022/06/29 03:38:04;;;;;;;4.70;2.28;;;15.50;99.90;;;;;;4989648;28;20026;-53
2022/06/29 03:40:30;;;;;;;3.88;2.28;;;15.40;99.90;;;;;;4985297;28;20045;-56
2022/06/29 03:42:55;;;;;;;6.53;2.55;;;15.40;99.90;;;;;;4988852;28;20419;-55
2022/06/29 03:45:22;;;;;;;7.78;2.70;;;15.40;99.90;;;;;;4990390;28;20150;-55
2022/06/29 03:47:48;;;;;;;4.07;2.33;;;15.40;99.90;;;;;;4994809;28;20100;-56
2022/06/29 03:50:14;;;;;;;4.78;2.22;;;15.40;99.90;;;;;;4989141;28;20040;-56
2022/06/29 03:52:40;;;;;;;7.40;2.78;;;15.50;99.90;;;;;;4990549;28;20736;-55
2022/06/29 03:55:06;;;;;;;4.70;2.50;;;15.50;99.90;;;;;;4990756;28;20030;-56
2022/06/29 03:57:32;;;;;;;6.43;2.83;;;15.60;99.90;;;;;;4990864;28;20105;-53
2022/06/29 03:59:58;;;;;;;4.50;2.60;;;15.60;99.90;;;;;;4991593;28;20117;-56
2022/06/29 04:02:25;;;;;;;6.80;2.30;;;15.70;99.90;;;;;;4988659;28;20373;-55
2022/06/29 04:04:51;;;;;;;5.43;2.22;;;15.70;99.90;;;;;;4997938;28;20031;-57
2022/06/29 04:07:16;;;;;;;8.82;2.40;;;15.80;99.90;;;;;;4990404;28;20038;-57
2022/06/29 04:09:42;;;;;;;7.60;2.70;;;15.80;99.90;;;;;;4978885;28;20034;-57
2022/06/29 04:12:08;;;;;;;5.32;2.95;;;15.90;99.90;;;;;;4982644;28;20046;-57
2022/06/29 04:14:33;;;;;;;6.20;2.75;;;16.00;99.90;;;;;;4989880;28;20480;-57
2022/06/29 04:16:59;;;;;;;8.13;2.70;;;16.10;99.90;;;;;;4992616;28;20101;-54
2022/06/29 04:19:25;;;;;;;4.22;2.72;;;16.10;99.90;;;;;;4989637;28;20038;-54
2022/06/29 04:21:52;;;;;;;5.30;2.88;;;16.10;99.90;;;;;;4992375;28;20030;-55
2022/06/29 04:24:17;;;;;;;3.42;2.40;;;16.20;99.90;;;;;;4991173;28;20068;-53
2022/06/29 04:26:44;;;;;;;8.05;2.40;;;16.20;99.90;;;;;;4976500;28;20062;-57
2022/06/29 04:29:10;;;;;;;5.03;2.55;;;16.30;99.90;;;;;;4988379;28;20072;-56
2022/06/29 04:31:36;;;;;;;7.43;2.20;;;16.30;99.90;;;;;;4987451;28;20061;-57
2022/06/29 04:34:02;;;;;;;7.32;3.13;;;16.40;99.90;;;;;;4990058;28;20516;-57
2022/06/29 04:36:28;;;;;;;3.78;2.20;;;16.40;99.90;;;;;;4994635;28;20030;-57
2022/06/29 04:38:54;;;;;;;5.18;2.25;;;16.40;99.90;;;;;;4992234;28;20030;-57
2022/06/29 04:41:20;;;;;;;6.70;2.72;;;16.40;99.90;;;;;;4996133;28;20108;-58
2022/06/29 04:43:46;;;;;;;6.85;2.83;;;16.50;99.90;;;;;;4993018;28;20026;-57
2022/06/29 04:46:21;;;;;;;3.75;2.15;;;16.50;99.90;;;;;;4991008;28;20026;-57
2022/06/29 04:48:48;;;;;;;6.00;2.55;;;16.50;99.90;;;;;;4991428;28;20022;-57
2022/06/29 04:51:15;;;;;;;8.40;2.75;;;16.50;99.90;;;;;;4991443;28;20030;-57
2022/06/29 04:53:42;;;;;;;2.83;2.20;;;16.60;99.90;;;;;;4996977;28;20158;-59
2022/06/29 04:56:08;;;;;;;2.80;2.03;;;16.60;99.90;;;;;;4991122;28;20072;-58
2022/06/29 04:58:33;;;;;;;3.33;1.73;;;16.70;99.90;;;;;;4994880;28;20566;-55
2022/06/29 05:00:59;;;;;;;4.13;2.30;;;16.80;99.90;;;;;;4989566;28;20490;-57
2022/06/29 05:03:25;;;;;;;3.72;2.08;;;16.90;99.90;;;;;;4991370;28;20040;-53
2022/06/29 05:05:51;;;;;;;2.20;1.83;;;16.90;99.90;;;;;;4996625;28;20128;-57
2022/06/29 05:08:16;;;;;;;3.03;1.70;;;17.00;99.90;;;;;;4987769;28;20084;-56
2022/06/29 05:10:42;;;;;;;4.13;1.55;;;17.10;99.90;;;;;;4989972;28;20023;-58
2022/06/29 05:13:11;;;;;;;2.97;2.00;;;17.10;99.90;;;;;;4987459;28;20050;-56
2022/06/29 05:15:38;;;;;;;4.57;1.80;;;17.20;99.90;;;;;;4978280;28;20510;-58
2022/06/29 05:18:04;;;;;;;2.63;1.75;;;17.30;99.90;;;;;;4989107;28;20034;-58
2022/06/29 05:20:29;;;;;;;2.33;1.60;;;17.40;99.90;;;;;;4997445;28;20034;-55
2022/06/29 05:22:55;;;;;;;6.88;2.42;;;17.50;99.90;;;;;;4996494;28;20080;-54
2022/06/29 05:25:21;;;;;;;5.43;2.40;;;17.60;99.90;;;;;;4971686;28;20050;-54
2022/06/29 05:27:47;;;;;;;3.88;1.83;;;17.70;99.90;;;;;;4985135;28;20030;-56
2022/06/29 05:30:13;;;;;;;6.45;1.88;;;17.70;99.90;;;;;;4993985;28;20029;-54
2022/06/29 05:32:38;;;;;;;3.10;1.80;;;17.80;99.90;;;;;;4985727;28;20023;-53
2022/06/29 05:35:05;;;;;;;4.70;1.92;;;17.90;99.90;;;;;;4987978;28;20030;-55
2022/06/29 05:37:31;;;;;;;3.53;1.90;;;18.00;99.90;;;;;;4991915;28;20052;-52
2022/06/29 05:39:57;;;;;;;4.00;2.00;;;18.20;99.90;;;;;;4992235;28;21483;-57
2022/06/29 05:42:22;;;;;;;2.53;1.73;;;18.30;99.90;;;;;;4988249;28;20072;-57
2022/06/29 05:44:48;;;;;;;3.80;1.75;;;18.40;99.90;;;;;;4995726;28;20033;-56
2022/06/29 05:47:14;;;;;;;4.72;2.35;;;18.40;99.90;;;;;;4993035;28;20374;-56
2022/06/29 05:49:40;;;;;;;9.60;2.33;;;18.30;99.90;;;;;;4998900;28;20034;-54
2022/06/29 05:52:06;;;;;;;5.18;2.30;;;18.40;99.90;;;;;;4990495;28;20030;-56
2022/06/29 05:54:32;;;;;;;4.70;2.08;;;18.40;99.90;;;;;;5001806;28;20018;-55
2022/06/29 05:56:58;;;;;;;6.13;2.00;;;18.30;99.90;;;;;;4994275;28;20018;-57
2022/06/29 05:59:23;;;;;;;5.25;1.92;;;18.20;99.90;;;;;;4998854;28;20026;-57
2022/06/29 06:01:49;;;;;;;3.50;2.08;;;18.20;99.90;;;;;;4997685;28;20403;-58
2022/06/29 06:04:14;;;;;;;2.20;1.60;;;18.20;99.90;;;;;;4998207;28;20033;-57
2022/06/29 06:06:40;;;;;;;6.30;2.10;;;18.20;99.90;;;;;;4995818;28;20447;-58
2022/06/29 06:09:05;;;;;;;2.80;2.00;;;18.20;99.90;;;;;;5002941;28;20033;-57
2022/06/29 06:11:31;;;;;;;7.97;2.10;;;18.20;99.90;;;;;;4991078;28;20598;-57
2022/06/29 06:13:57;;;;;;;3.53;1.85;;;18.10;99.90;;;;;;4991181;28;20484;-57
2022/06/29 06:16:22;;;;;;;2.47;2.10;;;18.10;99.90;;;;;;4993051;28;20520;-58
2022/06/29 06:18:48;;;;;;;3.22;2.00;;;18.10;99.90;;;;;;4995154;28;20041;-57
2022/06/29 06:21:14;;;;;;;6.68;2.33;;;18.10;99.90;;;;;;4991806;28;20026;-54
2022/06/29 06:23:40;;;;;;;6.55;2.25;;;18.10;99.90;;;;;;4986735;28;20451;-55
2022/06/29 06:26:05;;;;;;;4.38;2.08;;;18.10;99.90;;;;;;4973946;28;20133;-55
2022/06/29 06:28:31;;;;;;;6.35;1.90;;;18.10;99.90;;;;;;4990040;28;20386;-56
2022/06/29 06:30:57;;;;;;;4.72;1.73;;;18.00;99.90;;;;;;4988304;28;20027;-58
2022/06/29 06:33:22;;;;;;;8.10;2.15;;;18.00;99.90;;;;;;4990459;28;20519;-57
2022/06/29 06:35:48;;;;;;;3.95;2.03;;;18.00;99.90;;;;;;4994627;28;20038;-57
2022/06/29 06:38:14;;;;;;;3.78;2.13;;;18.10;99.90;;;;;;4990496;28;20076;-57
2022/06/29 06:43:24;;;;;;;6.07;2.10;;;18.10;99.90;;;;;;4993578;28;20061;-58
2022/06/29 06:45:49;;;;;;;4.53;2.55;;;18.20;99.90;;;;;;5002258;28;20045;-58
2022/06/29 06:48:15;;;;;;;6.10;2.40;;;18.40;99.90;;;;;;4987005;28;20033;-57
2022/06/29 06:50:41;;;;;;;4.18;2.55;;;18.40;99.90;;;;;;4995252;28;20455;-56
2022/06/29 06:53:06;;;;;;;7.47;2.08;;;18.50;99.90;;;;;;4994851;28;20030;-57
2022/06/29 06:55:32;;;;;;;4.97;2.15;;;18.50;99.90;;;;;;4996466;28;20042;-54
2022/06/29 06:57:58;;;;;;;5.57;2.80;;;18.50;99.90;;;;;;4988886;28;20030;-58
2022/06/29 07:00:23;;;;;;;6.82;2.13;;;18.60;99.90;;;;;;4995913;28;20030;-58
2022/06/29 07:02:49;;;;;;;7.88;3.10;;;18.70;99.90;;;;;;4996454;28;20113;-56
2022/06/29 07:05:15;;;;;;;7.57;2.50;;;18.80;99.90;;;;;;4983705;28;20403;-56
2022/06/29 07:07:41;;;;;;;10.82;2.15;;;18.80;99.90;;;;;;4989854;28;20465;-57
2022/06/29 07:10:07;;;;;;;7.60;2.47;;;18.90;99.90;;;;;;4991329;28;20058;-57
2022/06/29 07:12:32;;;;;;;3.25;2.13;;;19.00;99.90;;;;;;4982384;28;20449;-56
2022/06/29 07:14:58;;;;;;;5.85;2.50;;;19.20;99.90;;;;;;4999658;28;20041;-58
2022/06/29 07:17:24;;;;;;;4.68;2.90;;;19.30;99.90;;;;;;4993317;28;20026;-55
2022/06/29 07:19:50;;;;;;;6.50;2.72;;;19.40;99.90;;;;;;4998330;28;20030;-56
2022/06/29 07:22:15;;;;;;;11.80;2.88;;;19.40;99.90;;;;;;4990583;28;20491;-55
2022/06/29 07:24:41;;;;;;;6.22;2.55;;;19.50;99.90;;;;;;5001064;28;20045;-57
2022/06/29 07:27:07;;;;;;;3.40;2.50;;;19.50;99.90;;;;;;4964485;28;20393;-57
2022/06/29 07:29:32;;;;;;;10.23;3.13;;;19.50;99.90;;;;;;4996470;28;20129;-51
2022/06/29 07:31:58;;;;;;;6.22;2.47;;;19.50;99.90;;;;;;4990115;28;20030;-57
2022/06/29 07:34:24;;;;;;;3.65;2.60;;;19.50;99.90;;;;;;4991645;28;20449;-56
2022/06/29 07:36:49;;;;;;;3.53;2.08;;;19.50;99.90;;;;;;4993846;28;20030;-57
2022/06/29 07:39:15;;;;;;;4.05;2.22;;;19.60;99.90;;;;;;4992911;28;20057;-57
2022/06/29 07:41:41;;;;;;;3.03;2.30;;;19.60;99.90;;;;;;4990220;28;20037;-57
2022/06/29 07:44:07;;;;;;;9.02;2.22;;;19.60;99.90;;;;;;4994463;28;20030;-53
2022/06/29 07:46:33;;;;;;;5.03;1.90;;;19.70;99.90;;;;;;4983501;28;20502;-58
2022/06/29 07:48:58;;;;;;;7.80;2.40;;;19.80;99.90;;;;;;4991337;28;20037;-57
2022/06/29 07:51:24;;;;;;;4.05;2.00;;;19.80;99.90;;;;;;4988405;28;20384;-57
2022/06/29 07:53:50;;;;;;;2.38;1.88;;;19.80;99.90;;;;;;4992597;28;20695;-58
2022/06/29 07:56:15;;;;;;;6.78;2.22;;;19.90;99.90;;;;;;4997819;28;20101;-57
2022/06/29 07:58:41;;;;;;;4.07;1.60;;;20.00;99.90;;;;;;4991307;28;20150;-57
2022/06/29 08:01:06;;;;;;;6.43;1.90;;;20.10;99.90;;;;;;4993366;28;20069;-55
2022/06/29 08:03:32;;;;;;;4.70;2.22;;;20.20;99.90;;;;;;4989355;28;20026;-54
2022/06/29 08:05:59;;;;;;;7.00;2.03;;;20.20;99.70;;;;;;4996807;28;20026;-58
2022/06/29 08:08:24;;;;;;;2.55;1.85;;;20.20;99.90;;;;;;4992111;28;20088;-58
2022/06/29 08:10:50;;;;;;;4.53;1.80;;;20.30;99.90;;;;;;4993422;28;20439;-56
2022/06/29 08:13:16;;;;;;;3.58;1.92;;;20.30;99.90;;;;;;4988907;28;20101;-56
2022/06/29 08:15:45;;;;;;;5.28;2.22;;;20.30;99.90;;;;;;4982044;28;20050;-56
2022/06/29 08:18:15;;;;;;;6.90;1.90;;;20.20;99.90;;;;;;4991243;28;20026;-57
2022/06/29 08:20:40;;;;;;;4.65;2.10;;;20.20;99.90;;;;;;4991513;28;20461;-57
2022/06/29 08:23:06;;;;;;;2.97;1.80;;;20.20;99.90;;;;;;4990629;28;20056;-57
2022/06/29 08:25:32;;;;;;;3.03;2.20;;;20.30;99.90;;;;;;4992848;28;20026;-51
2022/06/29 08:27:58;;;;;;;4.22;2.40;;;20.30;99.90;;;;;;4968182;28;20128;-57
2022/06/29 08:30:24;;;;;;;6.50;2.03;;;20.30;99.90;;;;;;4994070;28;20030;-55
2022/06/29 08:32:50;;;;;;;3.90;2.13;;;20.30;99.90;;;;;;4987459;28;20556;-57
2022/06/29 08:35:17;;;;;;;4.57;2.15;;;20.30;99.90;;;;;;4991649;28;20077;-56
2022/06/29 08:37:44;;;;;;;4.68;2.22;;;20.30;99.90;;;;;;4989692;28;20060;-57
2022/06/29 08:40:16;;;;;;;9.07;2.72;;;20.40;99.90;;;;;;5000997;28;20029;-56
2022/06/29 08:42:44;;;;;;;5.72;2.00;;;20.50;99.50;;;;;;4988465;28;20023;-57
2022/06/29 08:45:11;;;;;;;4.95;2.13;;;20.50;99.40;;;;;;4984693;28;20038;-58
2022/06/29 08:47:37;;;;;;;4.20;1.77;;;20.50;99.90;;;;;;4989829;28;20084;-53
2022/06/29 08:50:04;;;;;;;8.10;3.15;;;20.40;99.90;;;;;;4989626;28;20402;-55
2022/06/29 08:52:30;;;;;;;6.82;2.60;;;20.30;99.90;;;;;;4990013;28;20114;-57
2022/06/29 08:54:58;;;;;;;5.43;3.08;;;20.40;99.90;;;;;;4985864;28;20488;-58
2022/06/29 08:57:25;;;;;;;6.20;3.08;;;20.40;99.90;;;;;;4982454;28;20532;-59
2022/06/29 08:59:53;;;;;;;4.18;2.53;;;20.50;99.90;;;;;;4990869;28;20033;-58
2022/06/29 09:02:18;;;;;;;4.25;2.42;;;20.60;99.90;;;;;;4990103;28;20038;-56
2022/06/29 09:04:44;;;;;;;3.83;2.40;;;20.50;99.90;;;;;;4991117;28;20038;-56
2022/06/29 09:07:09;;;;;;;5.20;2.78;;;20.60;99.90;;;;;;4985959;28;20035;-53
2022/06/29 09:10:13;;;;;;;7.40;2.83;;;20.60;99.90;;;;;;4989793;28;20022;-48
2022/06/29 09:12:39;;;;;;;7.28;2.72;;;20.70;99.90;;;;;;4987053;28;20669;-56
2022/06/29 09:15:09;;;;;;;8.30;2.88;;;20.80;99.90;;;;;;4986891;28;20088;-58
2022/06/29 09:17:36;;;;;;;8.73;2.75;;;21.00;99.90;;;;;;4989565;28;20042;-51
2022/06/29 09:20:03;;;;;;;7.20;2.65;;;21.30;99.90;;;;;;4990425;28;20034;-57
2022/06/29 09:22:29;;;;;;;6.47;2.47;;;21.30;99.90;;;;;;4987992;28;20038;-58
2022/06/29 09:24:55;;;;;;;6.15;2.88;;;21.20;99.90;;;;;;4989325;28;20159;-58
2022/06/29 09:27:24;;;;;;;6.28;2.22;;;21.10;99.90;;;;;;4979676;28;20037;-57
2022/06/29 09:29:49;;;;;;;6.47;2.90;;;21.10;99.90;;;;;;4994431;28;20038;-57
2022/06/29 09:32:17;;;;;;;3.58;2.05;;;21.20;99.90;;;;;;4991152;28;20542;-56
2022/06/29 09:34:46;;;;;;;4.88;2.67;;;21.10;99.90;;;;;;4988285;28;20037;-56
2022/06/29 09:37:17;;;;;;;5.80;2.10;;;21.20;99.90;;;;;;4987458;28;20491;-54
2022/06/29 09:39:50;;;;;;;12.02;3.20;;;21.30;99.90;;;;;;4990114;28;20058;-57
2022/06/29 09:42:26;;;;;;;8.98;2.33;;;21.30;99.90;;;;;;4988341;28;20081;-57
2022/06/29 09:44:52;;;;;;;8.13;2.63;;;21.40;99.90;;;;;;4995598;28;20149;-57
2022/06/29 09:47:20;;;;;;;7.78;2.42;;;21.50;99.90;;;;;;4990831;28;20683;-55
2022/06/29 09:49:54;;;;;;;6.97;2.08;;;21.70;99.90;;;;;;4990675;28;20096;-58
2022/06/29 09:52:20;;;;;;;4.40;1.95;;;21.70;99.90;;;;;;4988918;28;20022;-58
2022/06/29 09:54:54;;;;;;;7.00;2.30;;;21.70;99.90;;;;;;4989959;28;20026;-56
2022/06/29 09:57:22;;;;;;;3.33;1.92;;;21.70;99.90;;;;;;4991225;28;20023;-56
2022/06/29 10:02:43;;;;;;;7.38;2.20;;;22.20;98.90;;;;;;4991680;28;20044;-55
2022/06/29 10:05:09;;;;;;;3.92;2.13;;;22.50;98.90;;;;;;4989429;28;20552;-56
2022/06/29 10:07:37;;;;;;;3.28;2.05;;;22.70;98.50;;;;;;4986978;28;20133;-49
2022/06/29 10:10:06;;;;;;;6.60;3.08;;;23.00;98.60;;;;;;4995706;28;20034;-57
2022/06/29 10:15:49;;;;;;;4.43;1.77;;;23.50;94.80;;;;;;4989091;28;20033;-56
2022/06/29 10:18:50;;;;;;;5.43;1.83;;;23.60;94.50;;;;;;4992222;28;20037;-56
2022/06/29 10:21:22;;;;;;;7.35;2.17;;;23.40;94.00;;;;;;4994995;28;20443;-56
2022/06/29 10:23:53;;;;;;;6.72;2.55;;;23.50;94.40;;;;;;4984507;28;20109;-58
2022/06/29 10:26:37;;;;;;;4.95;1.77;;;23.90;94.20;;;;;;4999289;28;20030;-58
2022/06/29 10:29:06;;;;;;;3.08;2.13;;;23.90;94.30;;;;;;4983542;28;20073;-57
2022/06/29 10:32:02;;;;;;;4.25;1.73;;;24.00;92.50;;;;;;4981554;28;20409;-58
2022/06/29 10:37:13;;;;;;;3.03;1.83;;;24.20;91.70;;;;;;4992910;28;20062;-57
2022/06/29 10:39:50;;;;;;;4.88;2.00;;;23.80;93.30;;;;;;4991838;28;20042;-58
2022/06/29 10:45:08;;;;;;;3.65;1.95;;;23.50;93.80;;;;;;4988042;28;20076;-56
2022/06/29 10:47:34;;;;;;;6.22;2.00;;;23.60;93.20;;;;;;4988297;28;20702;-53
2022/06/29 10:50:23;;;;;;;4.85;2.38;;;23.30;94.10;;;;;;4991679;28;20040;-58
2022/06/29 10:52:56;;;;;;;4.85;2.42;;;23.30;94.60;;;;;;4992407;28;20116;-58
2022/06/29 10:55:23;;;;;;;;;;;23.10;94.60;;;;;;4989748;28;20049;-57
2022/06/29 10:57:49;;;;;;;5.57;2.30;;;23.10;95.10;;;;;;4986401;28;20307;-58
2022/06/29 11:00:35;;;;;;;4.50;2.60;;;23.20;94.80;;;;;;4990075;28;20022;-58
2022/06/29 11:03:14;;;;;;;6.97;2.70;;;23.20;94.40;;;;;;4984909;28;20100;-57
2022/06/29 11:12:01;;;;;;;4.75;2.10;;;23.30;94.10;;;;;;4982756;28;20492;-58
2022/06/29 11:13:59;;;;;;;4.40;2.30;;;23.60;94.50;;;;;;4985895;28;20037;-57
2022/06/29 11:16:30;;;;;;;3.97;2.10;;;23.70;95.00;;;;;;4980486;28;20036;-56
2022/06/29 11:18:56;;;;;;;6.75;2.40;;;23.80;94.60;;;;;;4982433;28;20035;-58
2022/06/29 11:21:23;;;;;;;4.00;2.17;;;24.10;94.80;;;;;;4990011;28;20086;-58
2022/06/29 11:23:55;;;;;;;4.28;2.40;;;24.30;94.20;;;;;;4979720;28;20043;-57
2022/06/29 11:26:24;;;;;;;7.35;2.38;;;24.40;93.70;;;;;;4988376;28;20054;-58
2022/06/29 11:28:49;;;;;;;5.10;2.28;;;24.10;94.10;;;;;;4990638;28;20062;-58
2022/06/29 11:31:16;;;;;;;6.63;2.08;;;24.10;94.80;;;;;;4974371;28;20073;-57
2022/06/29 11:33:49;;;;;;;4.00;2.40;;;23.80;93.30;;;;;;4993516;28;20404;-56
2022/06/29 11:36:18;;;;;;;3.17;2.47;;;23.70;94.10;;;;;;4983347;28;20089;-58
2022/06/29 11:38:49;;;;;;;4.38;2.55;;;23.60;94.00;;;;;;4989845;28;20077;-57
2022/06/29 11:44:27;;;;;;;4.40;2.38;;;24.00;95.00;;;;;;4988442;28;20423;-55
2022/06/29 11:46:54;;;;;;;7.28;2.60;;;24.00;94.40;;;;;;4984080;28;20030;-60
2022/06/29 11:49:39;;;;;;;3.63;2.58;;;23.90;94.10;;;;;;4977106;28;20074;-55
2022/06/29 11:52:08;;;;;;;3.15;2.40;;;23.90;94.50;;;;;;4985101;28;20168;-55
2022/06/29 11:55:00;;;;;;;6.78;2.20;;;23.90;95.20;;;;;;4986226;28;20027;-56
2022/06/29 11:57:26;;;;;;;7.18;2.63;;;23.80;94.70;;;;;;4985279;28;20026;-57
2022/06/29 11:59:52;;;;;;;4.57;2.50;;;23.80;94.40;;;;;;4990798;28;20100;-55
2022/06/29 12:02:18;;;;;;;5.00;2.47;;;24.10;94.00;;;;;;4976558;28;20828;-55
2022/06/29 12:04:45;;;;;;;6.63;2.60;;;24.10;93.90;;;;;;4984680;28;20034;-57
2022/06/29 12:07:13;;;;;;;3.63;2.50;;;24.40;94.10;;;;;;4976669;28;20039;-53
2022/06/29 12:09:41;;;;;;;3.50;2.47;;;24.50;93.20;;;;;;4981960;28;20109;-55
2022/06/29 12:12:09;;;;;;;7.35;2.20;;;25.00;93.20;;;;;;4987523;28;20034;-56
2022/06/29 12:14:37;;;;;;;4.90;2.17;;;25.60;93.20;;;;;;4984072;28;20105;-52
2022/06/29 12:17:03;;;;;;;5.90;2.72;;;26.10;88.70;;;;;;4987004;28;20019;-55
2022/06/29 12:19:29;;;;;;;4.18;2.50;;;26.10;89.00;;;;;;4991728;28;20507;-51
2022/06/29 12:21:57;;;;;;;3.78;2.30;;;26.20;90.00;;;;;;4982991;28;20042;-56
2022/06/29 12:24:24;;;;;;;3.15;2.30;;;26.40;90.20;;;;;;4978538;28;20054;-56
2022/06/29 12:26:50;;;;;;;7.28;2.63;;;26.30;88.40;;;;;;4975043;28;20369;-55
2022/06/29 12:29:15;;;;;;;6.00;2.67;;;26.00;87.70;;;;;;4978604;28;20083;-54
2022/06/29 12:31:42;;;;;;;4.00;3.08;;;26.10;89.90;;;;;;4961446;28;20046;-55
2022/06/29 12:34:09;;;;;;;4.57;2.83;;;26.10;88.20;;;;;;4983712;28;20023;-54
2022/06/29 12:36:34;;;;;;;8.18;3.00;;;26.00;90.10;;;;;;4982739;28;20121;-53
2022/06/29 12:39:00;;;;;;;4.57;2.95;;;25.90;89.70;;;;;;4989560;28;20141;-53
2022/06/29 12:41:26;;;;;;;13.20;3.10;;;25.80;90.90;;;;;;4980799;28;20393;-53
2022/06/29 12:43:52;;;;;;;5.57;2.55;;;25.60;90.50;;;;;;4987443;28;20037;-52
2022/06/29 12:46:18;;;;;;;7.15;3.20;;;25.60;90.60;;;;;;4986018;28;20038;-55
2022/06/29 12:48:43;;;;;;;5.70;2.80;;;25.40;90.90;;;;;;4990105;28;20041;-54
2022/06/29 12:51:09;;;;;;;3.90;2.50;;;25.30;91.20;;;;;;4996309;28;20026;-52
2022/06/29 12:53:35;;;;;;;5.78;2.65;;;25.10;90.90;;;;;;4983602;28;20036;-51
2022/06/29 12:56:02;;;;;;;3.53;2.97;;;25.00;91.40;;;;;;4984034;28;20030;-55
2022/06/29 12:58:28;;;;;;;5.45;2.83;;;25.00;91.70;;;;;;4984432;28;20041;-54
2022/06/29 13:00:53;;;;;;;7.43;2.90;;;25.00;91.20;;;;;;4983340;28;20027;-55
2022/06/29 13:03:19;;;;;;;5.45;2.75;;;24.80;91.40;;;;;;4986253;28;20030;-56
2022/06/29 13:05:45;;;;;;;8.02;3.22;;;24.80;92.50;;;;;;4977869;28;20118;-56
2022/06/29 13:08:11;;;;;;;6.10;3.25;;;24.80;91.80;;;;;;4977382;28;20038;-55
2022/06/29 13:10:37;;;;;;;6.88;3.47;;;24.90;91.80;;;;;;4977435;28;20023;-57
2022/06/29 13:13:03;;;;;;;7.18;2.90;;;25.00;92.10;;;;;;4995642;28;20108;-57